sensor_id;sensor_type;location;lat;lon;timestamp;P1;durP1;ratioP1;P2;durP2;ratioP2
77507;SDS011;66618;42.666;23.360;2023-04-12T00:02:24;11.20;;;7.13;;
77507;SDS011;66618;42.666;23.360;2023-04-12T00:04:51;11.35;;;6.10;;
77507;SDS011;66618;42.666;23.360;2023-04-12T00:07:22;12.63;;;7.72;;
77507;SDS011;66618;42.666;23.360;2023-04-12T00:09:48;11.35;;;7.10;;
77507;SDS011;66618;42.666;23.360;2023-04-12T00:12:14;12.35;;;6.72;;
77507;SDS011;66618;42.666;23.360;2023-04-12T00:14:41;13.70;;;7.45;;
77507;SDS011;66618;42.666;23.360;2023-04-12T00:17:07;11.77;;;7.10;;
77507;SDS011;66618;42.666;23.360;2023-04-12T00:19:32;12.50;;;7.55;;
77507;SDS011;66618;42.666;23.360;2023-04-12T00:21:58;11.02;;;7.25;;
77507;SDS011;66618;42.666;23.360;2023-04-12T00:24:23;11.57;;;6.90;;
77507;SDS011;66618;42.666;23.360;2023-04-12T00:26:50;10.68;;;6.70;;
77507;SDS011;66618;42.666;23.360;2023-04-12T00:29:15;13.48;;;7.28;;
77507;SDS011;66618;42.666;23.360;2023-04-12T00:31:41;11.98;;;7.05;;
77507;SDS011;66618;42.666;23.360;2023-04-12T00:34:06;12.35;;;7.38;;
77507;SDS011;66618;42.666;23.360;2023-04-12T00:36:31;15.82;;;8.05;;
77507;SDS011;66618;42.666;23.360;2023-04-12T00:38:57;11.23;;;7.03;;
77507;SDS011;66618;42.666;23.360;2023-04-12T00:41:22;12.48;;;7.55;;
77507;SDS011;66618;42.666;23.360;2023-04-12T00:43:48;13.07;;;7.03;;
77507;SDS011;66618;42.666;23.360;2023-04-12T00:46:14;10.43;;;6.45;;
77507;SDS011;66618;42.666;23.360;2023-04-12T00:48:41;13.18;;;7.53;;
77507;SDS011;66618;42.666;23.360;2023-04-12T00:51:07;14.13;;;7.68;;
77507;SDS011;66618;42.666;23.360;2023-04-12T00:53:33;13.25;;;7.78;;
77507;SDS011;66618;42.666;23.360;2023-04-12T00:55:58;13.77;;;7.95;;
77507;SDS011;66618;42.666;23.360;2023-04-12T00:58:25;14.27;;;7.50;;
77507;SDS011;66618;42.666;23.360;2023-04-12T01:00:50;13.15;;;8.20;;
77507;SDS011;66618;42.666;23.360;2023-04-12T01:03:19;12.18;;;6.95;;
77507;SDS011;66618;42.666;23.360;2023-04-12T01:05:54;13.63;;;7.70;;
77507;SDS011;66618;42.666;23.360;2023-04-12T01:11:19;12.88;;;7.68;;
77507;SDS011;66618;42.666;23.360;2023-04-12T01:14:15;12.60;;;7.60;;
77507;SDS011;66618;42.666;23.360;2023-04-12T01:16:47;14.45;;;7.53;;
77507;SDS011;66618;42.666;23.360;2023-04-12T01:27:48;12.05;;;6.78;;
77507;SDS011;66618;42.666;23.360;2023-04-12T01:30:16;11.93;;;7.35;;
77507;SDS011;66618;42.666;23.360;2023-04-12T01:32:42;15.30;;;7.75;;
77507;SDS011;66618;42.666;23.360;2023-04-12T01:35:10;13.25;;;7.88;;
77507;SDS011;66618;42.666;23.360;2023-04-12T01:37:37;15.52;;;7.82;;
77507;SDS011;66618;42.666;23.360;2023-04-12T01:40:02;12.77;;;7.82;;
77507;SDS011;66618;42.666;23.360;2023-04-12T01:42:30;13.25;;;7.53;;
77507;SDS011;66618;42.666;23.360;2023-04-12T01:44:56;15.50;;;8.20;;
77507;SDS011;66618;42.666;23.360;2023-04-12T01:47:22;14.55;;;8.13;;
77507;SDS011;66618;42.666;23.360;2023-04-12T01:49:54;13.57;;;7.95;;
77507;SDS011;66618;42.666;23.360;2023-04-12T01:52:29;15.52;;;8.00;;
77507;SDS011;66618;42.666;23.360;2023-04-12T01:54:56;14.70;;;7.72;;
77507;SDS011;66618;42.666;23.360;2023-04-12T01:57:22;14.27;;;8.55;;
77507;SDS011;66618;42.666;23.360;2023-04-12T01:59:48;13.10;;;8.02;;
77507;SDS011;66618;42.666;23.360;2023-04-12T02:02:14;14.63;;;7.30;;
77507;SDS011;66618;42.666;23.360;2023-04-12T02:04:40;12.05;;;7.57;;
77507;SDS011;66618;42.666;23.360;2023-04-12T02:07:06;13.80;;;8.07;;
77507;SDS011;66618;42.666;23.360;2023-04-12T02:09:35;14.73;;;8.20;;
77507;SDS011;66618;42.666;23.360;2023-04-12T02:12:02;13.40;;;7.93;;
77507;SDS011;66618;42.666;23.360;2023-04-12T02:14:27;17.98;;;8.93;;
77507;SDS011;66618;42.666;23.360;2023-04-12T02:16:55;15.30;;;8.63;;
77507;SDS011;66618;42.666;23.360;2023-04-12T02:19:22;13.63;;;7.90;;
77507;SDS011;66618;42.666;23.360;2023-04-12T02:21:47;16.30;;;8.70;;
77507;SDS011;66618;42.666;23.360;2023-04-12T02:24:13;13.60;;;7.97;;
77507;SDS011;66618;42.666;23.360;2023-04-12T02:26:39;14.93;;;8.35;;
77507;SDS011;66618;42.666;23.360;2023-04-12T02:29:05;12.80;;;8.35;;
77507;SDS011;66618;42.666;23.360;2023-04-12T02:31:33;15.43;;;8.45;;
77507;SDS011;66618;42.666;23.360;2023-04-12T02:34:00;15.02;;;8.48;;
77507;SDS011;66618;42.666;23.360;2023-04-12T02:36:26;15.70;;;8.05;;
77507;SDS011;66618;42.666;23.360;2023-04-12T02:38:51;14.50;;;7.82;;
77507;SDS011;66618;42.666;23.360;2023-04-12T02:41:17;15.50;;;7.57;;
77507;SDS011;66618;42.666;23.360;2023-04-12T02:43:43;15.75;;;7.88;;
77507;SDS011;66618;42.666;23.360;2023-04-12T02:46:09;16.95;;;8.10;;
77507;SDS011;66618;42.666;23.360;2023-04-12T02:48:37;14.95;;;8.25;;
77507;SDS011;66618;42.666;23.360;2023-04-12T02:51:02;15.65;;;7.85;;
77507;SDS011;66618;42.666;23.360;2023-04-12T02:53:28;15.07;;;7.95;;
77507;SDS011;66618;42.666;23.360;2023-04-12T02:55:53;13.48;;;8.00;;
77507;SDS011;66618;42.666;23.360;2023-04-12T02:58:21;13.77;;;8.57;;
77507;SDS011;66618;42.666;23.360;2023-04-12T03:00:46;15.38;;;8.07;;
77507;SDS011;66618;42.666;23.360;2023-04-12T03:03:13;12.57;;;8.13;;
77507;SDS011;66618;42.666;23.360;2023-04-12T03:05:41;16.60;;;8.88;;
77507;SDS011;66618;42.666;23.360;2023-04-12T03:08:11;15.90;;;8.80;;
77507;SDS011;66618;42.666;23.360;2023-04-12T03:10:36;16.98;;;9.38;;
77507;SDS011;66618;42.666;23.360;2023-04-12T03:13:02;15.60;;;8.35;;
77507;SDS011;66618;42.666;23.360;2023-04-12T03:15:28;17.98;;;8.30;;
77507;SDS011;66618;42.666;23.360;2023-04-12T03:17:54;16.23;;;8.68;;
77507;SDS011;66618;42.666;23.360;2023-04-12T03:20:19;15.50;;;8.25;;
77507;SDS011;66618;42.666;23.360;2023-04-12T03:22:45;16.63;;;9.82;;
77507;SDS011;66618;42.666;23.360;2023-04-12T03:25:10;16.83;;;8.93;;
77507;SDS011;66618;42.666;23.360;2023-04-12T03:27:36;19.20;;;9.95;;
77507;SDS011;66618;42.666;23.360;2023-04-12T03:30:02;18.20;;;10.07;;
77507;SDS011;66618;42.666;23.360;2023-04-12T03:32:28;16.88;;;8.65;;
77507;SDS011;66618;42.666;23.360;2023-04-12T03:34:53;21.40;;;10.00;;
77507;SDS011;66618;42.666;23.360;2023-04-12T03:37:19;15.93;;;9.45;;
77507;SDS011;66618;42.666;23.360;2023-04-12T03:39:44;18.98;;;10.35;;
77507;SDS011;66618;42.666;23.360;2023-04-12T03:42:12;22.48;;;10.60;;
77507;SDS011;66618;42.666;23.360;2023-04-12T03:44:38;19.25;;;10.90;;
77507;SDS011;66618;42.666;23.360;2023-04-12T03:47:03;21.08;;;11.50;;
77507;SDS011;66618;42.666;23.360;2023-04-12T03:49:29;22.20;;;11.52;;
77507;SDS011;66618;42.666;23.360;2023-04-12T03:51:54;20.95;;;11.15;;
77507;SDS011;66618;42.666;23.360;2023-04-12T03:54:21;18.45;;;9.85;;
77507;SDS011;66618;42.666;23.360;2023-04-12T03:56:47;19.10;;;10.73;;
77507;SDS011;66618;42.666;23.360;2023-04-12T03:59:12;17.38;;;10.30;;
77507;SDS011;66618;42.666;23.360;2023-04-12T04:01:39;20.33;;;10.98;;
77507;SDS011;66618;42.666;23.360;2023-04-12T04:04:05;16.52;;;9.25;;
77507;SDS011;66618;42.666;23.360;2023-04-12T04:06:31;20.92;;;10.73;;
77507;SDS011;66618;42.666;23.360;2023-04-12T04:08:57;18.45;;;10.50;;
77507;SDS011;66618;42.666;23.360;2023-04-12T04:11:23;16.88;;;9.55;;
77507;SDS011;66618;42.666;23.360;2023-04-12T04:13:49;17.50;;;10.45;;
77507;SDS011;66618;42.666;23.360;2023-04-12T04:16:15;22.70;;;9.43;;
77507;SDS011;66618;42.666;23.360;2023-04-12T04:18:42;18.02;;;10.40;;
77507;SDS011;66618;42.666;23.360;2023-04-12T04:21:07;17.65;;;10.68;;
77507;SDS011;66618;42.666;23.360;2023-04-12T04:23:33;16.83;;;10.77;;
77507;SDS011;66618;42.666;23.360;2023-04-12T04:26:07;19.08;;;10.02;;
77507;SDS011;66618;42.666;23.360;2023-04-12T04:28:38;18.45;;;9.20;;
77507;SDS011;66618;42.666;23.360;2023-04-12T04:31:08;19.50;;;10.35;;
77507;SDS011;66618;42.666;23.360;2023-04-12T04:33:36;15.77;;;9.38;;
77507;SDS011;66618;42.666;23.360;2023-04-12T04:36:03;17.77;;;10.50;;
77507;SDS011;66618;42.666;23.360;2023-04-12T04:38:29;19.25;;;10.15;;
77507;SDS011;66618;42.666;23.360;2023-04-12T04:40:57;18.60;;;10.55;;
77507;SDS011;66618;42.666;23.360;2023-04-12T04:43:24;16.52;;;9.70;;
77507;SDS011;66618;42.666;23.360;2023-04-12T04:45:53;19.05;;;10.70;;
77507;SDS011;66618;42.666;23.360;2023-04-12T04:48:18;19.33;;;9.90;;
77507;SDS011;66618;42.666;23.360;2023-04-12T04:50:45;15.52;;;9.25;;
77507;SDS011;66618;42.666;23.360;2023-04-12T04:53:11;15.77;;;9.77;;
77507;SDS011;66618;42.666;23.360;2023-04-12T04:55:36;17.42;;;9.45;;
77507;SDS011;66618;42.666;23.360;2023-04-12T04:58:02;15.65;;;9.70;;
77507;SDS011;66618;42.666;23.360;2023-04-12T05:00:27;17.10;;;9.45;;
77507;SDS011;66618;42.666;23.360;2023-04-12T05:02:53;16.52;;;9.95;;
77507;SDS011;66618;42.666;23.360;2023-04-12T05:05:18;15.35;;;8.82;;
77507;SDS011;66618;42.666;23.360;2023-04-12T05:07:48;15.68;;;8.65;;
77507;SDS011;66618;42.666;23.360;2023-04-12T05:10:13;15.93;;;8.98;;
77507;SDS011;66618;42.666;23.360;2023-04-12T05:12:39;18.15;;;9.85;;
77507;SDS011;66618;42.666;23.360;2023-04-12T05:15:05;15.25;;;8.77;;
77507;SDS011;66618;42.666;23.360;2023-04-12T05:17:30;16.73;;;8.68;;
77507;SDS011;66618;42.666;23.360;2023-04-12T05:19:58;15.05;;;8.13;;
77507;SDS011;66618;42.666;23.360;2023-04-12T05:22:24;13.75;;;7.95;;
77507;SDS011;66618;42.666;23.360;2023-04-12T05:24:50;13.13;;;7.65;;
77507;SDS011;66618;42.666;23.360;2023-04-12T05:27:15;11.73;;;7.22;;
77507;SDS011;66618;42.666;23.360;2023-04-12T05:29:44;9.50;;;5.60;;
77507;SDS011;66618;42.666;23.360;2023-04-12T05:32:09;12.35;;;7.05;;
77507;SDS011;66618;42.666;23.360;2023-04-12T05:34:35;10.60;;;6.20;;
77507;SDS011;66618;42.666;23.360;2023-04-12T05:37:01;8.52;;;5.95;;
77507;SDS011;66618;42.666;23.360;2023-04-12T05:39:28;10.30;;;6.28;;
77507;SDS011;66618;42.666;23.360;2023-04-12T05:41:53;11.65;;;6.22;;
77507;SDS011;66618;42.666;23.360;2023-04-12T05:44:19;9.80;;;5.80;;
77507;SDS011;66618;42.666;23.360;2023-04-12T05:46:44;10.30;;;5.90;;
77507;SDS011;66618;42.666;23.360;2023-04-12T05:49:10;9.50;;;5.80;;
77507;SDS011;66618;42.666;23.360;2023-04-12T05:51:36;10.63;;;5.95;;
77507;SDS011;66618;42.666;23.360;2023-04-12T05:54:01;7.80;;;4.93;;
77507;SDS011;66618;42.666;23.360;2023-04-12T05:56:30;9.45;;;5.72;;
77507;SDS011;66618;42.666;23.360;2023-04-12T05:58:56;10.98;;;5.68;;
77507;SDS011;66618;42.666;23.360;2023-04-12T06:01:21;10.45;;;5.47;;
77507;SDS011;66618;42.666;23.360;2023-04-12T06:03:48;8.90;;;4.68;;
77507;SDS011;66618;42.666;23.360;2023-04-12T06:06:15;8.05;;;4.15;;
77507;SDS011;66618;42.666;23.360;2023-04-12T06:08:40;5.80;;;4.28;;
77507;SDS011;66618;42.666;23.360;2023-04-12T06:11:06;6.00;;;3.97;;
77507;SDS011;66618;42.666;23.360;2023-04-12T06:13:32;7.43;;;4.40;;
77507;SDS011;66618;42.666;23.360;2023-04-12T06:15:57;7.90;;;4.75;;
77507;SDS011;66618;42.666;23.360;2023-04-12T06:18:23;12.00;;;4.75;;
77507;SDS011;66618;42.666;23.360;2023-04-12T06:20:48;7.63;;;4.25;;
77507;SDS011;66618;42.666;23.360;2023-04-12T06:23:14;8.93;;;4.78;;
77507;SDS011;66618;42.666;23.360;2023-04-12T06:25:39;8.73;;;4.75;;
77507;SDS011;66618;42.666;23.360;2023-04-12T06:28:05;8.60;;;4.88;;
77507;SDS011;66618;42.666;23.360;2023-04-12T06:30:30;9.30;;;5.25;;
77507;SDS011;66618;42.666;23.360;2023-04-12T06:32:56;7.30;;;4.72;;
77507;SDS011;66618;42.666;23.360;2023-04-12T06:35:21;8.18;;;4.50;;
77507;SDS011;66618;42.666;23.360;2023-04-12T06:37:47;8.77;;;4.57;;
77507;SDS011;66618;42.666;23.360;2023-04-12T06:40:13;7.05;;;4.25;;
77507;SDS011;66618;42.666;23.360;2023-04-12T06:42:38;6.07;;;4.43;;
77507;SDS011;66618;42.666;23.360;2023-04-12T06:45:04;8.23;;;4.53;;
77507;SDS011;66618;42.666;23.360;2023-04-12T06:47:30;7.20;;;3.85;;
77507;SDS011;66618;42.666;23.360;2023-04-12T06:49:56;7.95;;;4.13;;
77507;SDS011;66618;42.666;23.360;2023-04-12T06:52:22;6.72;;;3.90;;
77507;SDS011;66618;42.666;23.360;2023-04-12T06:54:49;7.85;;;4.13;;
77507;SDS011;66618;42.666;23.360;2023-04-12T06:57:15;7.95;;;4.20;;
77507;SDS011;66618;42.666;23.360;2023-04-12T06:59:40;6.65;;;3.88;;
77507;SDS011;66618;42.666;23.360;2023-04-12T07:02:06;7.88;;;4.10;;
77507;SDS011;66618;42.666;23.360;2023-04-12T07:04:31;5.93;;;3.97;;
77507;SDS011;66618;42.666;23.360;2023-04-12T07:06:57;5.38;;;3.67;;
77507;SDS011;66618;42.666;23.360;2023-04-12T07:09:22;5.05;;;3.42;;
77507;SDS011;66618;42.666;23.360;2023-04-12T07:11:48;7.65;;;4.53;;
77507;SDS011;66618;42.666;23.360;2023-04-12T07:14:13;6.50;;;3.90;;
77507;SDS011;66618;42.666;23.360;2023-04-12T07:16:38;5.95;;;3.78;;
77507;SDS011;66618;42.666;23.360;2023-04-12T07:19:04;8.60;;;3.80;;
77507;SDS011;66618;42.666;23.360;2023-04-12T07:21:29;7.07;;;4.03;;
77507;SDS011;66618;42.666;23.360;2023-04-12T07:23:55;6.68;;;3.88;;
77507;SDS011;66618;42.666;23.360;2023-04-12T07:26:20;4.00;;;3.10;;
77507;SDS011;66618;42.666;23.360;2023-04-12T07:28:46;6.03;;;3.38;;
77507;SDS011;66618;42.666;23.360;2023-04-12T07:31:11;5.10;;;3.58;;
77507;SDS011;66618;42.666;23.360;2023-04-12T07:33:37;5.80;;;4.05;;
77507;SDS011;66618;42.666;23.360;2023-04-12T07:36:02;5.90;;;4.20;;
77507;SDS011;66618;42.666;23.360;2023-04-12T07:38:28;5.03;;;4.10;;
77507;SDS011;66618;42.666;23.360;2023-04-12T07:40:54;5.35;;;4.07;;
77507;SDS011;66618;42.666;23.360;2023-04-12T07:43:21;5.53;;;4.15;;
77507;SDS011;66618;42.666;23.360;2023-04-12T07:45:47;4.90;;;3.75;;
77507;SDS011;66618;42.666;23.360;2023-04-12T07:48:13;5.15;;;3.85;;
77507;SDS011;66618;42.666;23.360;2023-04-12T07:50:39;6.28;;;3.90;;
77507;SDS011;66618;42.666;23.360;2023-04-12T07:53:17;6.03;;;3.90;;
77507;SDS011;66618;42.666;23.360;2023-04-12T07:55:47;5.22;;;3.67;;
77507;SDS011;66618;42.666;23.360;2023-04-12T07:58:13;5.85;;;3.33;;
77507;SDS011;66618;42.666;23.360;2023-04-12T08:00:39;4.57;;;2.97;;
77507;SDS011;66618;42.666;23.360;2023-04-12T08:03:05;4.15;;;3.00;;
77507;SDS011;66618;42.666;23.360;2023-04-12T08:05:30;3.47;;;2.92;;
77507;SDS011;66618;42.666;23.360;2023-04-12T08:07:56;5.18;;;2.88;;
77507;SDS011;66618;42.666;23.360;2023-04-12T08:10:21;3.75;;;2.90;;
77507;SDS011;66618;42.666;23.360;2023-04-12T08:12:47;3.67;;;2.90;;
77507;SDS011;66618;42.666;23.360;2023-04-12T08:15:12;3.40;;;3.10;;
77507;SDS011;66618;42.666;23.360;2023-04-12T08:17:38;5.72;;;3.03;;
77507;SDS011;66618;42.666;23.360;2023-04-12T08:20:03;3.88;;;2.83;;
77507;SDS011;66618;42.666;23.360;2023-04-12T08:22:29;4.72;;;2.70;;
77507;SDS011;66618;42.666;23.360;2023-04-12T08:24:55;4.72;;;2.38;;
77507;SDS011;66618;42.666;23.360;2023-04-12T08:27:20;3.83;;;2.50;;
77507;SDS011;66618;42.666;23.360;2023-04-12T08:29:46;2.72;;;2.22;;
77507;SDS011;66618;42.666;23.360;2023-04-12T08:32:11;2.47;;;2.28;;
77507;SDS011;66618;42.666;23.360;2023-04-12T08:34:37;2.83;;;2.45;;
77507;SDS011;66618;42.666;23.360;2023-04-12T08:37:02;3.92;;;2.80;;
77507;SDS011;66618;42.666;23.360;2023-04-12T08:39:29;4.43;;;2.75;;
77507;SDS011;66618;42.666;23.360;2023-04-12T08:41:55;4.53;;;2.30;;
77507;SDS011;66618;42.666;23.360;2023-04-12T08:44:34;3.97;;;2.28;;
77507;SDS011;66618;42.666;23.360;2023-04-12T08:47:02;2.30;;;1.67;;
77507;SDS011;66618;42.666;23.360;2023-04-12T08:49:32;3.55;;;2.05;;
77507;SDS011;66618;42.666;23.360;2023-04-12T08:52:05;2.45;;;1.77;;
77507;SDS011;66618;42.666;23.360;2023-04-12T08:56:59;3.17;;;1.70;;
77507;SDS011;66618;42.666;23.360;2023-04-12T08:59:28;2.22;;;1.75;;
77507;SDS011;66618;42.666;23.360;2023-04-12T09:01:54;3.72;;;2.00;;
77507;SDS011;66618;42.666;23.360;2023-04-12T09:04:21;3.55;;;2.03;;
77507;SDS011;66618;42.666;23.360;2023-04-12T09:06:47;2.92;;;1.90;;
77507;SDS011;66618;42.666;23.360;2023-04-12T09:09:12;2.75;;;1.80;;
77507;SDS011;66618;42.666;23.360;2023-04-12T09:11:38;2.00;;;1.70;;
77507;SDS011;66618;42.666;23.360;2023-04-12T09:14:14;2.10;;;1.70;;
77507;SDS011;66618;42.666;23.360;2023-04-12T09:16:44;4.45;;;1.70;;
77507;SDS011;66618;42.666;23.360;2023-04-12T09:19:10;2.55;;;1.92;;
77507;SDS011;66618;42.666;23.360;2023-04-12T09:21:35;2.40;;;1.73;;
77507;SDS011;66618;42.666;23.360;2023-04-12T09:26:33;1.80;;;1.50;;
77507;SDS011;66618;42.666;23.360;2023-04-12T09:29:02;1.60;;;1.50;;
77507;SDS011;66618;42.666;23.360;2023-04-12T09:31:29;2.53;;;1.48;;
77507;SDS011;66618;42.666;23.360;2023-04-12T09:34:05;2.47;;;1.60;;
77507;SDS011;66618;42.666;23.360;2023-04-12T09:36:38;2.00;;;1.55;;
77507;SDS011;66618;42.666;23.360;2023-04-12T09:39:05;1.88;;;1.63;;
77507;SDS011;66618;42.666;23.360;2023-04-12T09:41:31;3.92;;;1.48;;
77507;SDS011;66618;42.666;23.360;2023-04-12T09:43:57;2.65;;;1.40;;
77507;SDS011;66618;42.666;23.360;2023-04-12T09:46:25;1.55;;;1.40;;
77507;SDS011;66618;42.666;23.360;2023-04-12T09:48:55;1.42;;;1.33;;
77507;SDS011;66618;42.666;23.360;2023-04-12T09:51:29;2.08;;;1.20;;
77507;SDS011;66618;42.666;23.360;2023-04-12T09:54:01;1.73;;;1.35;;
77507;SDS011;66618;42.666;23.360;2023-04-12T09:56:28;1.67;;;1.17;;
77507;SDS011;66618;42.666;23.360;2023-04-12T09:58:56;2.92;;;1.50;;
77507;SDS011;66618;42.666;23.360;2023-04-12T10:01:26;1.70;;;1.60;;
77507;SDS011;66618;42.666;23.360;2023-04-12T10:03:52;2.28;;;1.30;;
77507;SDS011;66618;42.666;23.360;2023-04-12T10:06:18;2.08;;;1.60;;
77507;SDS011;66618;42.666;23.360;2023-04-12T10:08:44;1.50;;;1.23;;
77507;SDS011;66618;42.666;23.360;2023-04-12T10:11:10;1.10;;;1.00;;
77507;SDS011;66618;42.666;23.360;2023-04-12T10:13:35;1.73;;;1.40;;
77507;SDS011;66618;42.666;23.360;2023-04-12T10:16:02;3.00;;;1.08;;
77507;SDS011;66618;42.666;23.360;2023-04-12T10:18:29;1.58;;;0.98;;
77507;SDS011;66618;42.666;23.360;2023-04-12T10:20:56;3.70;;;1.10;;
77507;SDS011;66618;42.666;23.360;2023-04-12T10:23:22;1.48;;;0.90;;
77507;SDS011;66618;42.666;23.360;2023-04-12T10:25:47;2.78;;;1.00;;
77507;SDS011;66618;42.666;23.360;2023-04-12T10:28:13;0.70;;;0.70;;
77507;SDS011;66618;42.666;23.360;2023-04-12T10:30:45;2.00;;;0.73;;
77507;SDS011;66618;42.666;23.360;2023-04-12T10:33:17;2.20;;;0.95;;
77507;SDS011;66618;42.666;23.360;2023-04-12T10:38:12;1.58;;;0.90;;
77507;SDS011;66618;42.666;23.360;2023-04-12T10:40:38;3.20;;;1.38;;
77507;SDS011;66618;42.666;23.360;2023-04-12T10:43:43;1.25;;;1.15;;
77507;SDS011;66618;42.666;23.360;2023-04-12T10:51:34;1.67;;;0.88;;
77507;SDS011;66618;42.666;23.360;2023-04-12T11:01:23;4.78;;;0.93;;
77507;SDS011;66618;42.666;23.360;2023-04-12T11:04:04;2.40;;;1.05;;
77507;SDS011;66618;42.666;23.360;2023-04-12T11:09:05;1.00;;;0.80;;
77507;SDS011;66618;42.666;23.360;2023-04-12T11:11:32;1.67;;;0.80;;
77507;SDS011;66618;42.666;23.360;2023-04-12T11:13:58;2.88;;;1.02;;
77507;SDS011;66618;42.666;23.360;2023-04-12T11:16:26;7.85;;;1.10;;
77507;SDS011;66618;42.666;23.360;2023-04-12T11:18:51;0.80;;;0.63;;
77507;SDS011;66618;42.666;23.360;2023-04-12T11:21:17;1.77;;;1.00;;
77507;SDS011;66618;42.666;23.360;2023-04-12T11:23:43;1.90;;;0.80;;
77507;SDS011;66618;42.666;23.360;2023-04-12T11:26:09;2.08;;;0.82;;
77507;SDS011;66618;42.666;23.360;2023-04-12T11:28:34;2.13;;;1.00;;
77507;SDS011;66618;42.666;23.360;2023-04-12T11:31:00;3.55;;;1.00;;
77507;SDS011;66618;42.666;23.360;2023-04-12T11:33:39;2.70;;;1.05;;
77507;SDS011;66618;42.666;23.360;2023-04-12T11:36:08;1.48;;;0.75;;
77507;SDS011;66618;42.666;23.360;2023-04-12T11:38:38;1.42;;;0.80;;
77507;SDS011;66618;42.666;23.360;2023-04-12T11:41:04;2.97;;;0.95;;
77507;SDS011;66618;42.666;23.360;2023-04-12T11:43:31;1.88;;;0.80;;
77507;SDS011;66618;42.666;23.360;2023-04-12T11:46:00;2.42;;;0.80;;
77507;SDS011;66618;42.666;23.360;2023-04-12T11:48:26;2.80;;;0.88;;
77507;SDS011;66618;42.666;23.360;2023-04-12T11:50:52;1.95;;;0.90;;
77507;SDS011;66618;42.666;23.360;2023-04-12T11:53:17;0.98;;;0.80;;
77507;SDS011;66618;42.666;23.360;2023-04-12T11:55:47;2.83;;;1.20;;
77507;SDS011;66618;42.666;23.360;2023-04-12T11:58:13;3.33;;;0.93;;
77507;SDS011;66618;42.666;23.360;2023-04-12T12:00:40;1.95;;;1.40;;
77507;SDS011;66618;42.666;23.360;2023-04-12T12:03:06;2.30;;;0.82;;
77507;SDS011;66618;42.666;23.360;2023-04-12T12:05:31;1.20;;;0.80;;
77507;SDS011;66618;42.666;23.360;2023-04-12T12:08:00;1.90;;;0.90;;
77507;SDS011;66618;42.666;23.360;2023-04-12T12:10:31;1.77;;;0.90;;
77507;SDS011;66618;42.666;23.360;2023-04-12T12:12:56;1.75;;;0.80;;
77507;SDS011;66618;42.666;23.360;2023-04-12T12:15:22;1.23;;;0.98;;
77507;SDS011;66618;42.666;23.360;2023-04-12T12:17:49;1.63;;;0.93;;
77507;SDS011;66618;42.666;23.360;2023-04-12T12:20:19;1.80;;;0.90;;
77507;SDS011;66618;42.666;23.360;2023-04-12T12:22:45;3.13;;;0.95;;
77507;SDS011;66618;42.666;23.360;2023-04-12T12:25:11;1.10;;;0.73;;
77507;SDS011;66618;42.666;23.360;2023-04-12T12:27:37;1.00;;;0.80;;
77507;SDS011;66618;42.666;23.360;2023-04-12T12:30:05;2.53;;;0.80;;
77507;SDS011;66618;42.666;23.360;2023-04-12T12:32:32;1.92;;;0.80;;
77507;SDS011;66618;42.666;23.360;2023-04-12T12:34:58;1.42;;;0.70;;
77507;SDS011;66618;42.666;23.360;2023-04-12T12:37:25;1.58;;;0.80;;
77507;SDS011;66618;42.666;23.360;2023-04-12T12:40:11;4.07;;;0.80;;
77507;SDS011;66618;42.666;23.360;2023-04-12T12:42:47;1.20;;;0.70;;
77507;SDS011;66618;42.666;23.360;2023-04-12T12:45:15;2.97;;;0.70;;
77507;SDS011;66618;42.666;23.360;2023-04-12T12:47:45;4.00;;;1.02;;
77507;SDS011;66618;42.666;23.360;2023-04-12T12:50:10;2.15;;;0.70;;
77507;SDS011;66618;42.666;23.360;2023-04-12T12:52:38;4.43;;;1.13;;
77507;SDS011;66618;42.666;23.360;2023-04-12T12:55:03;3.45;;;0.93;;
77507;SDS011;66618;42.666;23.360;2023-04-12T12:57:29;1.20;;;0.82;;
77507;SDS011;66618;42.666;23.360;2023-04-12T12:59:55;1.02;;;0.60;;
77507;SDS011;66618;42.666;23.360;2023-04-12T13:02:21;1.20;;;0.80;;
77507;SDS011;66618;42.666;23.360;2023-04-12T13:04:46;2.55;;;0.88;;
77507;SDS011;66618;42.666;23.360;2023-04-12T13:07:12;1.85;;;0.80;;
77507;SDS011;66618;42.666;23.360;2023-04-12T13:09:37;1.15;;;0.80;;
77507;SDS011;66618;42.666;23.360;2023-04-12T13:12:02;1.20;;;0.90;;
77507;SDS011;66618;42.666;23.360;2023-04-12T13:14:28;1.23;;;0.80;;
77507;SDS011;66618;42.666;23.360;2023-04-12T13:16:53;1.88;;;0.82;;
77507;SDS011;66618;42.666;23.360;2023-04-12T13:19:19;0.70;;;0.70;;
77507;SDS011;66618;42.666;23.360;2023-04-12T13:21:44;1.42;;;0.90;;
77507;SDS011;66618;42.666;23.360;2023-04-12T13:24:09;1.17;;;0.70;;
77507;SDS011;66618;42.666;23.360;2023-04-12T13:26:35;1.13;;;0.75;;
77507;SDS011;66618;42.666;23.360;2023-04-12T13:29:01;2.42;;;1.00;;
77507;SDS011;66618;42.666;23.360;2023-04-12T13:31:27;1.10;;;0.90;;
77507;SDS011;66618;42.666;23.360;2023-04-12T13:33:52;1.00;;;0.90;;
77507;SDS011;66618;42.666;23.360;2023-04-12T13:36:18;1.75;;;0.90;;
77507;SDS011;66618;42.666;23.360;2023-04-12T13:38:43;0.70;;;0.70;;
77507;SDS011;66618;42.666;23.360;2023-04-12T13:41:08;0.70;;;0.70;;
77507;SDS011;66618;42.666;23.360;2023-04-12T13:43:34;1.33;;;1.00;;
77507;SDS011;66618;42.666;23.360;2023-04-12T13:45:59;1.10;;;1.00;;
77507;SDS011;66618;42.666;23.360;2023-04-12T13:48:25;1.17;;;1.00;;
77507;SDS011;66618;42.666;23.360;2023-04-12T13:50:50;1.35;;;0.80;;
77507;SDS011;66618;42.666;23.360;2023-04-12T13:53:16;1.35;;;1.08;;
77507;SDS011;66618;42.666;23.360;2023-04-12T13:55:41;3.10;;;1.00;;
77507;SDS011;66618;42.666;23.360;2023-04-12T13:58:06;3.05;;;0.90;;
77507;SDS011;66618;42.666;23.360;2023-04-12T14:00:32;2.58;;;1.00;;
77507;SDS011;66618;42.666;23.360;2023-04-12T14:02:57;1.08;;;0.98;;
77507;SDS011;66618;42.666;23.360;2023-04-12T14:05:22;1.35;;;0.90;;
77507;SDS011;66618;42.666;23.360;2023-04-12T14:07:48;2.70;;;1.10;;
77507;SDS011;66618;42.666;23.360;2023-04-12T14:10:14;1.20;;;1.10;;
77507;SDS011;66618;42.666;23.360;2023-04-12T14:12:40;1.52;;;1.27;;
77507;SDS011;66618;42.666;23.360;2023-04-12T14:15:05;4.43;;;0.93;;
77507;SDS011;66618;42.666;23.360;2023-04-12T14:17:31;1.67;;;0.90;;
77507;SDS011;66618;42.666;23.360;2023-04-12T14:19:57;1.05;;;0.90;;
77507;SDS011;66618;42.666;23.360;2023-04-12T14:22:23;0.82;;;0.82;;
77507;SDS011;66618;42.666;23.360;2023-04-12T14:24:48;1.17;;;0.90;;
77507;SDS011;66618;42.666;23.360;2023-04-12T14:27:14;1.35;;;0.80;;
77507;SDS011;66618;42.666;23.360;2023-04-12T14:29:39;1.13;;;0.85;;
77507;SDS011;66618;42.666;23.360;2023-04-12T14:32:04;1.35;;;0.90;;
77507;SDS011;66618;42.666;23.360;2023-04-12T14:34:30;2.72;;;1.08;;
77507;SDS011;66618;42.666;23.360;2023-04-12T14:36:55;1.70;;;0.90;;
77507;SDS011;66618;42.666;23.360;2023-04-12T14:39:22;1.73;;;0.90;;
77507;SDS011;66618;42.666;23.360;2023-04-12T14:41:48;1.15;;;1.13;;
77507;SDS011;66618;42.666;23.360;2023-04-12T14:44:13;1.35;;;0.90;;
77507;SDS011;66618;42.666;23.360;2023-04-12T14:46:39;0.85;;;0.80;;
77507;SDS011;66618;42.666;23.360;2023-04-12T14:49:04;1.70;;;1.00;;
77507;SDS011;66618;42.666;23.360;2023-04-12T14:51:30;1.10;;;1.00;;
77507;SDS011;66618;42.666;23.360;2023-04-12T14:53:56;0.88;;;0.80;;
77507;SDS011;66618;42.666;23.360;2023-04-12T14:56:22;2.22;;;0.82;;
77507;SDS011;66618;42.666;23.360;2023-04-12T14:58:49;1.00;;;0.90;;
77507;SDS011;66618;42.666;23.360;2023-04-12T15:01:17;1.20;;;0.82;;